Time;durP1;ratioP1;P1;durP2;ratioP2;P2;SDS_P1;SDS_P2;PMS_P1;PMS_P2;Temp;Humidity;BMP_temperature;BMP_pressure;BME280_temperature;BME280_humidity;BME280_pressure;Samples;Min_cycle;Max_cycle;Signal;HPM_P1;HPM_P2
2023/06/29 00:01:42;;;;;;;6.60;2.60;;;;;;;14.23;83.86;100604.77;105475;1254;73757;-57
2023/06/29 00:04:11;;;;;;;5.20;3.20;;;;;;;14.22;83.90;100607.60;105461;1253;83213;-56
2023/06/29 00:06:39;;;;;;;4.40;3.10;;;;;;;14.23;83.92;100608.96;105469;1257;73737;-56
2023/06/29 00:09:08;;;;;;;4.80;2.80;;;;;;;14.23;84.03;100605.64;105404;1254;69121;-56
2023/06/29 00:11:37;;;;;;;4.60;2.70;;;;;;;14.23;84.09;100607.06;105475;1254;69133;-56
2023/06/29 00:14:05;;;;;;;5.10;3.00;;;;;;;14.23;84.08;100611.96;105459;1253;74675;-56
2023/06/29 00:16:35;;;;;;;7.50;3.20;;;;;;;14.22;84.21;100613.25;105437;1257;83303;-56
2023/06/29 00:19:03;;;;;;;6.10;2.70;;;;;;;14.22;84.32;100612.91;105458;1257;73534;-56
2023/06/29 00:21:32;;;;;;;4.60;3.00;;;;;;;14.22;84.58;100610.41;105438;1257;69204;-56
2023/06/29 00:24:02;;;;;;;6.10;3.00;;;;;;;14.22;84.44;100611.83;105363;1257;69073;-56
2023/06/29 00:26:31;;;;;;;5.20;3.20;;;;;;;14.21;84.40;100611.18;105472;1257;74542;-56
2023/06/29 00:28:59;;;;;;;4.30;2.90;;;;;;;14.20;84.50;100613.71;105470;1257;83498;-55
2023/06/29 00:31:28;;;;;;;5.00;2.80;;;;;;;14.16;84.50;100613.88;105485;1253;73702;-56
2023/06/29 00:33:57;;;;;;;6.40;2.70;;;;;;;14.17;84.65;100616.86;105462;1257;69107;-55
2023/06/29 00:36:26;;;;;;;6.70;3.10;;;;;;;14.15;84.60;100615.33;105434;1257;69189;-53
2023/06/29 00:38:54;;;;;;;4.00;2.50;;;;;;;14.10;84.63;100611.58;105486;1253;73772;-54
2023/06/29 00:41:23;;;;;;;3.90;2.80;;;;;;;14.03;84.51;100608.00;105378;1259;83377;-55
2023/06/29 00:43:52;;;;;;;3.80;2.80;;;;;;;13.95;84.69;100609.61;105521;1255;73629;-56
2023/06/29 00:46:21;;;;;;;4.70;3.00;;;;;;;13.89;84.75;100611.48;105470;1257;69224;-55
2023/06/29 00:48:49;;;;;;;6.20;3.50;;;;;;;13.87;85.17;100612.83;105383;1257;69193;-55
2023/06/29 00:51:18;;;;;;;4.80;3.20;;;;;;;13.88;85.49;100612.06;105359;1254;74774;-55
2023/06/29 00:53:46;;;;;;;6.30;3.40;;;;;;;13.90;85.47;100613.25;105502;1257;83647;-54
2023/06/29 00:56:15;;;;;;;4.30;3.10;;;;;;;13.89;85.56;100613.59;105303;1254;73538;-56
2023/06/29 00:58:43;;;;;;;5.30;3.10;;;;;;;13.83;85.27;100614.74;105453;1257;69180;-55
2023/06/29 01:01:12;;;;;;;4.70;2.70;;;;;;;13.77;85.53;100614.01;105424;1257;69221;-56
2023/06/29 01:03:42;;;;;;;3.80;2.60;;;;;;;13.76;85.85;100610.90;105496;1253;75109;-55
2023/06/29 01:06:14;;;;;;;4.30;2.90;;;;;;;13.68;85.39;100608.64;105393;1254;81883;-56
2023/06/29 01:08:45;;;;;;;4.80;2.80;;;;;;;13.57;85.45;100606.98;105277;1255;72848;-55
2023/06/29 01:11:14;;;;;;;5.20;2.90;;;;;;;13.51;86.00;100606.41;105403;1253;69113;-56
2023/06/29 01:13:43;;;;;;;4.60;2.60;;;;;;;13.43;85.43;100607.29;105239;1260;69324;-56
2023/06/29 01:16:14;;;;;;;4.00;3.00;;;;;;;13.34;85.66;100609.27;105341;1258;74590;-55
2023/06/29 01:18:44;;;;;;;6.20;3.00;;;;;;;13.28;85.98;100610.63;105359;1253;83286;-55
2023/06/29 01:21:12;;;;;;;;;;;;;;;13.23;86.02;100613.10;105203;1254;72408;-56
2023/06/29 01:23:42;;;;;;;3.80;2.80;;;;;;;13.16;86.34;100611.63;105443;1253;69065;-55
2023/06/29 01:26:12;;;;;;;5.10;3.30;;;;;;;13.11;86.68;100609.55;105401;1259;69126;-54
2023/06/29 01:28:40;;;;;;;5.50;3.00;;;;;;;13.10;87.14;100610.68;105444;1253;73928;-55
2023/06/29 01:31:11;;;;;;;4.80;3.50;;;;;;;13.12;87.47;100609.00;105457;1257;83300;-55
2023/06/29 01:33:40;;;;;;;7.90;3.80;;;;;;;13.15;87.91;100604.83;105469;1253;73571;-55
2023/06/29 01:36:36;;;;;;;6.00;3.20;;;;;;;13.17;87.87;100604.05;105432;1257;69304;-55
2023/06/29 01:39:27;;;;;;;5.40;2.90;;;;;;;13.15;87.88;100600.27;105376;1254;69148;-55
2023/06/29 01:41:57;;;;;;;5.70;2.80;;;;;;;13.15;87.94;100601.52;105394;1253;74864;-56
2023/06/29 01:44:25;;;;;;;5.60;3.50;;;;;;;13.12;87.87;100601.46;105430;1257;83410;-55
2023/06/29 01:46:55;;;;;;;6.20;3.00;;;;;;;13.06;87.84;100600.85;105368;1258;73911;-56
2023/06/29 01:49:23;;;;;;;6.30;3.40;;;;;;;13.02;87.85;100604.53;105242;1253;69162;-56
2023/06/29 01:51:52;;;;;;;4.40;3.10;;;;;;;12.97;87.76;100601.42;105462;1253;69168;-56
2023/06/29 01:54:20;;;;;;;3.80;2.90;;;;;;;12.94;87.93;100603.69;105456;1253;74566;-56
2023/06/29 01:56:49;;;;;;;4.10;3.00;;;;;;;12.89;88.23;100603.17;105507;1253;83607;-55
2023/06/29 01:59:17;;;;;;;6.10;3.10;;;;;;;12.86;88.24;100599.09;105442;1253;73566;-56
2023/06/29 02:01:45;;;;;;;5.00;3.20;;;;;;;12.82;88.33;100595.92;105426;1253;69152;-55
2023/06/29 02:04:14;;;;;;;5.00;3.10;;;;;;;12.78;88.40;100595.06;105481;1255;69194;-56
2023/06/29 02:06:44;;;;;;;6.00;3.30;;;;;;;12.73;88.32;100597.02;105452;1253;75744;-56
2023/06/29 02:09:12;;;;;;;5.10;2.90;;;;;;;12.67;88.31;100597.80;105377;1259;82319;-56
2023/06/29 02:11:41;;;;;;;4.60;3.10;;;;;;;12.63;88.44;100600.80;105450;1257;73744;-56
2023/06/29 02:14:09;;;;;;;4.20;3.00;;;;;;;12.59;88.50;100601.67;105427;1253;69196;-56
2023/06/29 02:16:38;;;;;;;6.90;3.10;;;;;;;12.54;88.70;100600.13;105454;1258;69280;-57
2023/06/29 02:19:06;;;;;;;4.40;3.30;;;;;;;12.49;88.78;100599.80;105441;1257;75354;-56
2023/06/29 02:21:35;;;;;;;6.40;3.00;;;;;;;12.46;88.81;100600.09;105450;1257;83346;-56
2023/06/29 02:24:04;;;;;;;6.00;3.50;;;;;;;12.43;89.20;100597.58;105429;1257;73428;-56
2023/06/29 02:26:32;;;;;;;4.20;2.70;;;;;;;12.39;89.10;100599.69;105442;1256;69172;-56
2023/06/29 02:29:01;;;;;;;4.70;3.10;;;;;;;12.35;89.18;100602.13;105400;1257;69174;-55
2023/06/29 02:31:29;;;;;;;3.20;2.90;;;;;;;12.30;89.08;100600.91;105461;1257;74412;-54
2023/06/29 02:33:58;;;;;;;5.70;2.80;;;;;;;12.25;89.31;100596.55;105479;1255;83322;-56
2023/06/29 02:36:27;;;;;;;4.30;2.80;;;;;;;12.22;89.30;100596.35;105372;1254;73338;-56
2023/06/29 02:38:56;;;;;;;4.30;3.00;;;;;;;12.18;89.39;100597.21;105453;1256;69171;-56
2023/06/29 02:41:24;;;;;;;4.70;3.10;;;;;;;12.14;89.53;100600.71;105479;1253;69106;-58
2023/06/29 02:43:53;;;;;;;4.40;2.70;;;;;;;12.12;89.73;100604.30;105459;1255;74738;-57
2023/06/29 02:46:22;;;;;;;6.50;3.20;;;;;;;12.12;89.73;100606.58;105498;1253;83659;-57
2023/06/29 02:48:50;;;;;;;5.10;2.90;;;;;;;12.09;89.95;100610.19;105493;1253;73439;-58
2023/06/29 02:51:19;;;;;;;4.40;3.40;;;;;;;12.08;89.96;100611.47;105465;1257;69190;-57
2023/06/29 02:53:48;;;;;;;5.10;3.50;;;;;;;12.07;90.38;100614.45;105458;1257;69173;-58
2023/06/29 02:56:17;;;;;;;4.10;3.10;;;;;;;12.06;90.17;100615.40;105488;1253;74807;-57
2023/06/29 02:58:45;;;;;;;4.60;3.10;;;;;;;12.03;90.45;100616.18;105486;1255;83406;-56
2023/06/29 03:01:19;;;;;;;5.40;3.40;;;;;;;12.03;90.61;100610.92;105438;1253;73815;-56
2023/06/29 03:03:48;;;;;;;5.70;3.30;;;;;;;12.02;90.67;100614.83;105408;1256;69138;-56
2023/06/29 03:06:16;;;;;;;5.60;2.90;;;;;;;12.00;90.54;100616.86;105407;1253;69140;-56
2023/06/29 03:08:44;;;;;;;4.90;3.40;;;;;;;12.00;90.76;100620.89;105411;1253;75277;-56
2023/06/29 03:11:13;;;;;;;5.00;3.10;;;;;;;12.00;91.12;100622.99;105436;1253;83365;-56
2023/06/29 03:13:41;;;;;;;3.10;2.80;;;;;;;12.00;91.01;100623.16;105401;1253;73705;-57
2023/06/29 03:16:10;;;;;;;3.50;2.90;;;;;;;12.00;91.23;100625.23;105439;1253;69135;-56
2023/06/29 03:18:38;;;;;;;4.30;3.20;;;;;;;12.01;91.30;100625.41;105487;1253;69100;-57
2023/06/29 03:21:07;;;;;;;5.00;3.40;;;;;;;12.01;91.45;100627.88;105399;1253;74788;-54
2023/06/29 03:23:46;;;;;;;4.30;3.10;;;;;;;12.00;91.64;100627.90;105428;1257;83359;-53
2023/06/29 03:26:14;;;;;;;5.30;3.30;;;;;;;12.00;91.61;100632.98;105450;1253;73435;-52
2023/06/29 03:28:43;;;;;;;5.20;3.10;;;;;;;12.01;91.90;100629.42;105457;1254;69211;-52
2023/06/29 03:31:11;;;;;;;9.50;4.20;;;;;;;12.02;91.86;100630.07;105448;1257;69994;-52
2023/06/29 03:33:40;;;;;;;4.80;3.10;;;;;;;12.02;92.02;100633.90;105481;1257;73810;-51
2023/06/29 03:36:11;;;;;;;4.30;3.30;;;;;;;12.04;92.15;100636.46;105465;1255;83209;-53
2023/06/29 03:38:39;;;;;;;4.00;3.10;;;;;;;12.08;92.43;100639.15;105461;1257;73752;-52
2023/06/29 03:41:08;;;;;;;4.40;3.10;;;;;;;12.11;92.59;100637.63;105444;1257;69976;-51
2023/06/29 03:43:37;;;;;;;4.60;3.50;;;;;;;12.13;93.01;100635.59;105463;1257;69863;-54
2023/06/29 03:46:05;;;;;;;6.00;3.60;;;;;;;12.18;92.89;100637.67;105436;1253;74669;-54
2023/06/29 03:48:33;;;;;;;4.00;3.40;;;;;;;12.23;93.10;100635.56;105470;1257;83090;-52
2023/06/29 03:51:02;;;;;;;4.70;3.10;;;;;;;12.25;93.13;100636.87;105492;1256;72804;-53
2023/06/29 03:53:30;;;;;;;6.40;3.30;;;;;;;12.28;93.13;100637.80;105400;1254;69982;-50
2023/06/29 03:55:59;;;;;;;3.60;3.00;;;;;;;12.32;93.50;100641.48;105481;1257;69929;-54
2023/06/29 03:58:27;;;;;;;5.90;3.40;;;;;;;12.37;93.63;100638.83;105544;1253;73461;-51
2023/06/29 04:00:56;;;;;;;3.60;3.20;;;;;;;12.42;93.75;100637.77;105449;1253;82009;-51
2023/06/29 04:03:24;;;;;;;5.50;3.50;;;;;;;12.50;94.48;100636.77;105429;1253;73561;-51
2023/06/29 04:05:53;;;;;;;4.60;4.00;;;;;;;12.59;94.65;100637.93;105465;1257;69219;-53
2023/06/29 04:08:21;;;;;;;4.90;3.80;;;;;;;12.68;95.03;100642.14;105483;1257;70440;-50
2023/06/29 04:10:49;;;;;;;6.50;3.80;;;;;;;12.77;95.04;100642.62;105451;1257;75043;-52
2023/06/29 04:13:18;;;;;;;5.10;3.80;;;;;;;12.85;95.10;100646.70;105472;1257;83016;-52
2023/06/29 04:15:46;;;;;;;5.10;3.90;;;;;;;12.91;95.05;100645.16;105455;1253;73775;-50
2023/06/29 04:18:15;;;;;;;5.50;3.80;;;;;;;12.97;95.13;100647.41;105443;1253;69162;-51
2023/06/29 04:20:43;;;;;;;5.50;4.10;;;;;;;13.05;95.41;100643.73;105446;1257;69198;-51
2023/06/29 04:23:14;;;;;;;5.10;4.10;;;;;;;13.12;95.63;100644.27;105541;1256;75046;-52
2023/06/29 04:25:43;;;;;;;5.60;4.20;;;;;;;13.19;95.35;100644.68;105455;1257;83263;-54
2023/06/29 04:28:12;;;;;;;5.00;3.50;;;;;;;13.25;95.53;100641.63;105433;1253;73259;-52
2023/06/29 04:30:41;;;;;;;6.30;4.00;;;;;;;13.31;95.74;100640.48;105430;1254;69461;-50
2023/06/29 04:33:11;;;;;;;5.20;4.20;;;;;;;13.39;95.69;100640.84;105470;1255;69180;-51
2023/06/29 04:35:40;;;;;;;5.50;4.30;;;;;;;13.47;95.84;100639.45;105447;1253;74847;-51
2023/06/29 04:38:10;;;;;;;5.70;4.40;;;;;;;13.53;95.84;100639.70;105455;1257;82456;-51
2023/06/29 04:40:39;;;;;;;6.20;3.90;;;;;;;13.62;96.08;100639.29;105433;1253;73881;-50
2023/06/29 04:43:08;;;;;;;4.10;3.60;;;;;;;13.71;95.97;100638.54;105438;1253;69117;-53
2023/06/29 04:45:36;;;;;;;5.40;3.60;;;;;;;13.78;95.89;100639.06;105461;1257;69801;-51
2023/06/29 04:48:05;;;;;;;8.30;3.90;;;;;;;13.86;95.90;100636.41;105449;1253;75006;-53
2023/06/29 04:50:36;;;;;;;4.20;3.70;;;;;;;13.94;95.89;100632.00;105498;1253;83389;-50
2023/06/29 04:53:09;;;;;;;5.90;3.60;;;;;;;14.01;96.07;100631.64;105438;1253;71784;-52
2023/06/29 04:55:38;;;;;;;4.90;3.50;;;;;;;14.11;96.10;100630.85;105710;1257;69241;-50
2023/06/29 04:58:06;;;;;;;6.10;4.30;;;;;;;14.19;95.99;100631.16;105563;1253;69980;-50
2023/06/29 05:00:35;;;;;;;5.20;3.70;;;;;;;14.27;96.32;100629.52;105681;1253;74966;-50
2023/06/29 05:03:03;;;;;;;5.80;4.30;;;;;;;14.38;96.50;100634.25;105610;1252;83514;-50
2023/06/29 05:05:32;;;;;;;5.20;4.20;;;;;;;14.50;96.71;100631.05;105694;1252;73665;-49
2023/06/29 05:08:00;;;;;;;6.50;4.00;;;;;;;14.62;96.64;100633.13;105726;1256;70006;-49
2023/06/29 05:10:29;;;;;;;6.40;3.60;;;;;;;14.71;96.59;100631.95;105634;1257;70009;-48
2023/06/29 05:12:57;;;;;;;8.80;4.20;;;;;;;14.80;96.48;100631.66;105686;1253;74626;-51
2023/06/29 05:15:26;;;;;;;7.30;4.10;;;;;;;14.90;96.47;100630.29;105616;1252;83115;-49
2023/06/29 05:17:54;;;;;;;6.00;4.10;;;;;;;15.00;96.47;100630.11;105455;1258;73600;-53
2023/06/29 05:20:23;;;;;;;5.20;3.50;;;;;;;15.11;96.42;100634.98;105627;1254;69848;-49
2023/06/29 05:22:51;;;;;;;6.20;3.90;;;;;;;15.20;95.98;100638.05;105652;1252;70001;-47
2023/06/29 05:25:20;;;;;;;6.10;3.60;;;;;;;15.27;95.76;100636.97;105502;1253;73868;-50
2023/06/29 05:27:49;;;;;;;5.40;4.00;;;;;;;15.37;95.71;100640.17;105520;1257;83299;-49
2023/06/29 05:30:17;;;;;;;8.30;3.70;;;;;;;15.48;95.12;100638.17;105572;1253;72424;-48
2023/06/29 05:32:46;;;;;;;4.80;3.20;;;;;;;15.58;94.68;100636.55;105936;1254;70012;-48
2023/06/29 05:35:15;;;;;;;6.10;3.60;;;;;;;15.69;94.32;100637.74;105625;1257;69993;-49
2023/06/29 05:37:43;;;;;;;7.00;3.10;;;;;;;15.82;94.03;100638.27;105618;1253;73812;-50
2023/06/29 05:40:12;;;;;;;5.00;3.40;;;;;;;15.94;93.54;100637.80;105560;1253;83374;-52
2023/06/29 05:42:41;;;;;;;8.30;3.50;;;;;;;16.05;93.21;100636.29;105643;1255;72696;-50
2023/06/29 05:45:09;;;;;;;6.30;3.60;;;;;;;16.17;92.76;100634.03;105489;1257;69825;-50
2023/06/29 05:47:38;;;;;;;7.20;4.10;;;;;;;16.27;92.23;100638.41;105682;1256;69593;-50
2023/06/29 05:50:07;;;;;;;6.90;3.80;;;;;;;16.35;91.75;100638.66;105572;1253;73891;-52
2023/06/29 05:52:35;;;;;;;4.30;3.20;;;;;;;16.43;91.68;100637.51;105643;1255;83134;-55
2023/06/29 05:55:04;;;;;;;6.90;3.40;;;;;;;16.50;91.27;100637.77;105652;1253;72357;-52
2023/06/29 05:57:32;;;;;;;5.70;3.40;;;;;;;16.56;90.97;100639.54;105573;1253;69068;-49
2023/06/29 06:00:07;;;;;;;6.10;3.10;;;;;;;16.63;90.63;100640.25;105608;1253;69793;-51
2023/06/29 06:02:36;;;;;;;6.40;3.50;;;;;;;16.69;90.42;100642.31;105547;1253;73796;-50
2023/06/29 06:05:09;;;;;;;6.90;3.70;;;;;;;16.76;90.28;100637.34;105568;1253;82241;-52
2023/06/29 06:07:38;;;;;;;7.70;3.60;;;;;;;16.85;90.26;100635.22;105524;1258;73662;-53
2023/06/29 06:10:07;;;;;;;5.70;3.80;;;;;;;16.93;90.05;100633.35;105573;1254;69870;-54
2023/06/29 06:12:36;;;;;;;5.10;3.70;;;;;;;17.01;89.97;100635.33;105468;1257;69997;-52
2023/06/29 06:15:06;;;;;;;4.30;3.40;;;;;;;17.10;89.74;100638.67;105723;1253;74937;-51
2023/06/29 06:17:34;;;;;;;4.70;3.40;;;;;;;17.16;89.38;100637.44;105494;1257;82998;-53
2023/06/29 06:20:05;;;;;;;7.40;3.50;;;;;;;17.23;89.29;100637.72;105679;1253;74723;-49
2023/06/29 06:22:33;;;;;;;5.00;3.60;;;;;;;17.30;89.05;100630.76;105573;1257;69129;-53
2023/06/29 06:25:02;;;;;;;7.60;3.30;;;;;;;17.41;89.09;100635.22;105632;1257;69168;-50
2023/06/29 06:27:31;;;;;;;5.90;3.80;;;;;;;17.51;88.71;100633.68;105698;1253;74700;-54
2023/06/29 06:30:00;;;;;;;5.50;3.40;;;;;;;17.61;88.51;100628.64;105555;1257;83357;-54
2023/06/29 06:32:29;;;;;;;6.10;3.20;;;;;;;17.72;88.42;100631.34;105584;1253;73850;-51
2023/06/29 06:34:57;;;;;;;4.90;3.40;;;;;;;17.81;88.15;100634.48;105471;1257;69904;-53
2023/06/29 06:37:26;;;;;;;5.50;3.80;;;;;;;17.90;87.65;100635.03;105604;1256;69149;-54
2023/06/29 06:39:54;;;;;;;4.80;3.40;;;;;;;17.97;87.18;100632.58;105441;1253;74837;-53
2023/06/29 06:42:23;;;;;;;6.40;3.30;;;;;;;18.04;86.65;100636.02;105591;1257;83064;-54
2023/06/29 06:44:52;;;;;;;5.30;2.80;;;;;;;18.13;86.21;100634.96;105448;1253;73307;-50
2023/06/29 06:47:21;;;;;;;5.60;2.20;;;;;;;18.19;85.37;100632.92;105537;1257;69178;-51
2023/06/29 06:49:49;;;;;;;4.60;2.70;;;;;;;18.24;84.97;100629.92;105714;1256;69175;-49
2023/06/29 06:52:18;;;;;;;4.70;2.30;;;;;;;18.31;84.56;100631.29;105668;1253;74922;-52
2023/06/29 06:54:46;;;;;;;4.30;2.30;;;;;;;18.38;83.89;100630.15;105646;1259;83213;-53
2023/06/29 06:57:15;;;;;;;3.40;2.30;;;;;;;18.44;83.38;100629.38;105595;1253;73975;-51
2023/06/29 06:59:44;;;;;;;3.20;2.20;;;;;;;18.50;82.85;100628.27;105556;1253;69827;-54
2023/06/29 07:02:12;;;;;;;6.70;2.50;;;;;;;18.55;82.41;100627.43;105612;1253;69840;-52
2023/06/29 07:04:41;;;;;;;2.80;1.90;;;;;;;18.62;82.05;100626.41;105620;1253;74741;-54
2023/06/29 07:07:10;;;;;;;3.70;2.20;;;;;;;18.66;81.37;100628.05;105564;1253;83338;-51
2023/06/29 07:09:39;;;;;;;5.20;2.30;;;;;;;18.70;80.83;100623.58;105593;1257;74032;-56
2023/06/29 07:12:09;;;;;;;4.60;2.20;;;;;;;18.75;80.91;100627.84;105487;1253;246754;-57
2023/06/29 07:14:37;;;;;;;4.60;2.30;;;;;;;18.84;80.80;100623.84;105612;1257;69080;-56
2023/06/29 07:17:06;;;;;;;7.20;2.10;;;;;;;18.92;80.36;100621.73;105662;1253;74562;-57
2023/06/29 07:19:35;;;;;;;5.20;2.00;;;;;;;19.00;79.85;100622.78;105747;1253;82347;-57
2023/06/29 07:22:06;;;;;;;3.80;2.10;;;;;;;19.04;79.01;100620.02;105166;1259;75140;-57
2023/06/29 07:24:37;;;;;;;2.90;1.80;;;;;;;19.08;78.84;100614.97;104646;1270;69790;-49
2023/06/29 07:27:06;;;;;;;4.20;2.30;;;;;;;19.13;78.30;100615.15;104755;1269;70014;-52
2023/06/29 07:29:34;;;;;;;6.00;2.10;;;;;;;19.19;78.17;100617.55;104651;1264;74650;-51
2023/06/29 07:32:04;;;;;;;4.10;2.00;;;;;;;19.28;77.77;100612.17;104613;1270;83358;-57
2023/06/29 07:34:32;;;;;;;4.30;2.20;;;;;;;19.34;77.69;100615.83;104740;1265;73989;-56
2023/06/29 07:37:01;;;;;;;4.50;2.30;;;;;;;19.41;77.66;100611.42;104740;1264;69101;-56
2023/06/29 07:39:29;;;;;;;2.40;1.80;;;;;;;19.49;77.27;100608.91;104655;1267;69320;-55
2023/06/29 07:41:57;;;;;;;4.10;2.00;;;;;;;19.55;76.71;100609.02;105000;1263;73204;-56
2023/06/29 07:44:26;;;;;;;2.90;1.80;;;;;;;19.59;76.39;100610.52;105066;1263;83309;-56
2023/06/29 07:46:54;;;;;;;3.90;1.80;;;;;;;19.66;75.77;100610.05;105063;1261;72681;-55
2023/06/29 07:49:23;;;;;;;3.80;2.20;;;;;;;19.73;75.28;100610.79;105189;1264;69189;-55
2023/06/29 07:51:51;;;;;;;3.10;1.80;;;;;;;19.79;74.53;100607.38;105485;1258;69190;-56
2023/06/29 07:54:19;;;;;;;4.90;1.90;;;;;;;19.81;74.12;100603.81;105530;1253;74573;-56
2023/06/29 07:56:48;;;;;;;2.70;1.50;;;;;;;19.84;74.04;100603.77;105472;1257;83391;-56
2023/06/29 07:59:19;;;;;;;6.10;2.00;;;;;;;19.89;73.73;100604.33;105024;1259;73897;-56
2023/06/29 08:01:48;;;;;;;4.80;1.70;;;;;;;19.94;73.35;100602.15;105045;1259;69070;-56
2023/06/29 08:04:17;;;;;;;4.60;1.90;;;;;;;20.06;73.12;100602.71;105072;1262;69405;-56
2023/06/29 08:07:06;;;;;;;3.20;1.50;;;;;;;20.19;72.57;100604.90;105013;1259;74548;-56
2023/06/29 08:09:37;;;;;;;3.00;1.50;;;;;;;20.28;71.51;100604.79;105070;1264;82343;-56
2023/06/29 08:12:06;;;;;;;1.80;1.00;;;;;;;20.35;70.43;100599.69;105052;1259;73653;-56
2023/06/29 08:14:35;;;;;;;3.40;1.30;;;;;;;20.40;69.73;100603.34;105035;1263;69229;-54
2023/06/29 08:17:04;;;;;;;5.20;1.40;;;;;;;20.46;69.07;100601.13;105161;1262;69204;-56
2023/06/29 08:19:33;;;;;;;4.40;1.40;;;;;;;20.55;69.21;100598.38;105474;1253;74876;-58
2023/06/29 08:22:01;;;;;;;2.60;1.40;;;;;;;20.66;69.03;100603.56;105431;1258;83343;-56
2023/06/29 08:24:29;;;;;;;5.50;1.40;;;;;;;20.76;68.74;100598.87;105487;1253;73582;-56
2023/06/29 08:26:58;;;;;;;3.70;1.30;;;;;;;20.90;68.38;100595.16;105550;1253;69071;-56
2023/06/29 08:29:27;;;;;;;2.50;1.50;;;;;;;21.00;67.63;100594.77;105522;1257;69116;-56
2023/06/29 08:31:55;;;;;;;4.30;1.70;;;;;;;21.09;67.21;100593.14;105596;1257;73787;-56
2023/06/29 08:34:24;;;;;;;3.00;1.40;;;;;;;21.18;66.89;100596.00;105538;1257;83068;-56
2023/06/29 08:36:52;;;;;;;7.10;1.80;;;;;;;21.28;66.36;100592.71;105500;1253;73851;-56
2023/06/29 08:39:21;;;;;;;3.10;1.80;;;;;;;21.40;66.26;100594.69;105478;1253;69090;-56
2023/06/29 08:41:50;;;;;;;4.80;1.60;;;;;;;21.51;65.94;100592.88;105498;1257;69200;-53
2023/06/29 08:44:19;;;;;;;3.30;1.30;;;;;;;21.63;65.58;100588.71;105508;1257;73702;-55
2023/06/29 08:46:48;;;;;;;2.90;1.70;;;;;;;21.76;65.05;100591.41;105502;1258;83351;-55
2023/06/29 08:49:21;;;;;;;2.90;1.20;;;;;;;21.86;64.58;100585.64;105381;1258;72678;-54
2023/06/29 08:51:52;;;;;;;5.70;1.60;;;;;;;22.01;64.36;100589.38;105459;1253;69173;-55
2023/06/29 08:54:20;;;;;;;3.90;1.80;;;;;;;22.16;64.06;100588.53;105341;1253;69141;-54
2023/06/29 08:56:49;;;;;;;5.70;1.70;;;;;;;22.27;63.59;100589.77;105511;1253;74787;-55
2023/06/29 08:59:18;;;;;;;4.70;1.80;;;;;;;22.37;63.26;100583.39;105358;1258;83120;-55
2023/06/29 09:01:47;;;;;;;5.30;1.50;;;;;;;22.44;62.81;100585.29;105477;1253;73214;-55
2023/06/29 09:04:16;;;;;;;4.30;1.30;;;;;;;22.53;62.48;100591.20;105471;1253;69059;-55
2023/06/29 09:06:44;;;;;;;9.00;1.40;;;;;;;22.57;61.87;100585.81;105306;1258;69193;-54
2023/06/29 09:09:12;;;;;;;4.40;1.60;;;;;;;22.65;61.46;100587.33;105502;1253;74809;-55
2023/06/29 09:11:41;;;;;;;3.30;1.50;;;;;;;22.69;60.66;100585.02;105455;1258;83060;-55
2023/06/29 09:14:11;;;;;;;3.20;1.20;;;;;;;22.74;60.32;100580.16;105526;1253;73663;-55
2023/06/29 09:16:53;;;;;;;4.10;1.60;;;;;;;22.81;60.30;100579.50;105448;1257;69198;-55
2023/06/29 09:19:24;;;;;;;2.00;1.20;;;;;;;22.92;60.21;100578.92;105476;1258;69189;-55
2023/06/29 09:21:52;;;;;;;2.60;1.30;;;;;;;23.01;59.62;100574.77;105469;1257;74144;-54
2023/06/29 09:24:21;;;;;;;2.70;1.20;;;;;;;23.11;59.73;100577.33;105486;1256;83209;-53
2023/06/29 09:26:53;;;;;;;5.90;1.70;;;;;;;23.24;58.94;100576.91;105474;1258;73741;-55
2023/06/29 09:29:22;;;;;;;2.60;1.20;;;;;;;23.30;58.40;100572.61;105447;1253;69056;-55
2023/06/29 09:31:56;;;;;;;2.00;1.00;;;;;;;23.33;57.61;100572.20;105526;1253;69165;-54
2023/06/29 09:34:26;;;;;;;3.80;1.30;;;;;;;23.36;57.39;100567.79;105471;1258;73920;-54
2023/06/29 09:36:56;;;;;;;2.00;1.10;;;;;;;23.46;57.34;100566.61;105472;1257;82369;-55
2023/06/29 09:39:25;;;;;;;3.60;1.40;;;;;;;23.60;57.17;100564.59;105489;1258;73727;-55
2023/06/29 09:41:56;;;;;;;3.70;1.60;;;;;;;23.73;56.62;100565.30;105492;1257;70766;-54
2023/06/29 09:44:26;;;;;;;2.20;0.90;;;;;;;23.86;56.23;100561.48;105472;1253;69170;-55
2023/06/29 09:47:05;;;;;;;2.60;1.30;;;;;;;23.95;55.76;100556.65;105516;1258;73557;-55
2023/06/29 09:49:54;;;;;;;3.80;1.20;;;;;;;24.05;55.29;100550.44;104967;1262;83316;-57
2023/06/29 09:52:23;;;;;;;2.70;1.30;;;;;;;24.20;55.14;100547.56;105018;1262;72693;-57
2023/06/29 09:54:57;;;;;;;2.50;1.10;;;;;;;24.31;54.68;100551.04;105002;1259;69172;-55
2023/06/29 09:57:27;;;;;;;3.10;1.10;;;;;;;24.35;54.02;100552.46;105079;1264;69885;-57
2023/06/29 09:59:55;;;;;;;4.20;1.60;;;;;;;24.47;54.10;100544.74;105064;1262;75271;-57
2023/06/29 10:02:24;;;;;;;2.20;1.00;;;;;;;24.61;53.75;100541.36;105029;1261;83101;-57
2023/06/29 10:04:54;;;;;;;3.80;1.20;;;;;;;24.75;53.74;100541.80;104977;1259;72661;-57
2023/06/29 10:07:22;;;;;;;2.70;1.40;;;;;;;24.91;53.11;100539.39;105110;1253;69220;-57
2023/06/29 10:09:50;;;;;;;3.80;1.30;;;;;;;25.04;52.58;100538.72;105497;1258;69219;-57
2023/06/29 10:12:22;;;;;;;2.80;1.10;;;;;;;25.09;52.14;100535.84;105355;1258;74172;-57
2023/06/29 10:14:51;;;;;;;3.20;1.30;;;;;;;25.26;52.13;100527.33;105493;1253;81775;-57
2023/06/29 10:17:24;;;;;;;2.40;1.20;;;;;;;25.50;52.04;100527.67;105344;1258;73174;-57
2023/06/29 10:19:54;;;;;;;2.70;1.20;;;;;;;25.74;51.48;100527.77;105452;1253;69056;-58
2023/06/29 10:22:22;;;;;;;;;;;;;;;25.91;50.98;100530.94;105523;1259;69161;-57
2023/06/29 10:24:55;;;;;;;2.00;1.00;;;;;;;26.05;50.35;100525.42;105496;1257;74780;-58
2023/06/29 10:27:27;;;;;;;2.30;1.20;;;;;;;26.26;50.64;100522.57;105304;1258;83778;-58
2023/06/29 10:29:56;;;;;;;3.30;1.50;;;;;;;26.50;49.64;100522.58;105446;1253;72737;-57
2023/06/29 10:32:36;;;;;;;5.30;1.60;;;;;;;26.62;49.08;100521.87;105326;1255;69259;-58
2023/06/29 10:35:11;;;;;;;3.90;1.30;;;;;;;26.80;48.51;100518.39;105407;1253;69266;-58
2023/06/29 10:37:42;;;;;;;2.60;1.30;;;;;;;27.09;48.54;100515.30;105453;1258;73681;-57
2023/06/29 10:40:16;;;;;;;2.00;1.10;;;;;;;27.35;48.12;100520.11;105494;1258;83568;-58
2023/06/29 10:42:50;;;;;;;4.20;1.30;;;;;;;27.45;47.56;100522.30;105435;1253;73958;-56
2023/06/29 10:45:19;;;;;;;3.50;1.20;;;;;;;27.29;46.91;100521.11;105459;1253;69196;-58
2023/06/29 10:47:53;;;;;;;2.60;1.10;;;;;;;27.27;46.83;100517.40;105342;1257;69180;-57
2023/06/29 10:50:28;;;;;;;2.50;1.00;;;;;;;27.69;46.77;100515.43;105302;1258;74773;-58
2023/06/29 10:53:00;;;;;;;3.40;1.10;;;;;;;28.30;46.66;100517.83;105269;1256;82831;-58
2023/06/29 10:55:38;;;;;;;3.20;1.40;;;;;;;28.82;45.86;100515.08;105308;1257;73954;-58
2023/06/29 10:58:15;;;;;;;1.60;0.90;;;;;;;29.33;44.99;100514.09;105477;1253;69168;-58
2023/06/29 11:00:43;;;;;;;2.40;1.10;;;;;;;29.59;44.41;100513.71;105474;1254;69133;-58
2023/06/29 11:03:13;;;;;;;3.20;1.40;;;;;;;29.77;43.90;100510.27;105477;1258;73996;-58
2023/06/29 11:05:43;;;;;;;4.70;1.20;;;;;;;30.04;43.36;100507.82;105373;1253;83579;-58
2023/06/29 11:08:11;;;;;;;5.10;1.20;;;;;;;30.42;42.61;100502.20;105436;1253;73984;-58
2023/06/29 11:10:40;;;;;;;1.80;1.00;;;;;;;30.74;42.03;100501.83;105426;1258;69221;-58
2023/06/29 11:13:09;;;;;;;3.50;1.10;;;;;;;31.07;41.96;100505.25;105341;1257;69189;-56
2023/06/29 11:15:38;;;;;;;5.00;1.40;;;;;;;31.29;40.99;100503.30;105484;1253;73646;-58
2023/06/29 11:18:08;;;;;;;2.40;1.10;;;;;;;31.70;40.97;100502.66;105526;1258;83536;-58
2023/06/29 11:20:39;;;;;;;2.10;1.20;;;;;;;32.00;40.44;100501.73;105386;1254;73617;-58
2023/06/29 11:23:07;;;;;;;2.20;1.00;;;;;;;31.77;39.49;100502.45;105400;1258;69287;-57
2023/06/29 11:25:36;;;;;;;2.90;1.20;;;;;;;31.53;39.32;100498.61;105439;1257;69820;-56
2023/06/29 11:28:05;;;;;;;;;;;;;;;31.63;39.32;100497.76;105444;1253;74828;-57